createdAt,value
2023-01-18T00:00:37.885Z,1.97
2023-01-18T00:03:05.315Z,2.05
2023-01-18T00:05:33.585Z,2.05
2023-01-18T00:08:00.156Z,2.07
2023-01-18T00:10:26.994Z,2.14
2023-01-18T00:12:53.535Z,2.08
2023-01-18T00:15:20.025Z,2.08
2023-01-18T00:17:51.774Z,2.01
2023-01-18T00:20:21.507Z,2.03
2023-01-18T00:22:48.652Z,1.99
2023-01-18T00:25:15.469Z,1.99
2023-01-18T00:27:47.521Z,2.07
2023-01-18T00:30:17.523Z,2.06
2023-01-18T00:32:45.404Z,2.04
2023-01-18T00:35:13.137Z,1.98
2023-01-18T00:37:39.928Z,2.05
2023-01-18T00:40:07.678Z,2.05
2023-01-18T00:42:52.830Z,2.12
2023-01-18T00:45:19.481Z,2.06
2023-01-18T00:47:46.405Z,2.05
2023-01-18T00:50:13.059Z,2.12
2023-01-18T00:52:40.573Z,2.15
2023-01-18T00:55:07.902Z,2.12
2023-01-18T00:57:34.439Z,2.16
2023-01-18T01:00:00.936Z,2.15
2023-01-18T01:02:27.547Z,2.14
2023-01-18T01:05:12.592Z,2.17
2023-01-18T01:07:39.135Z,2.16
2023-01-18T01:10:09.832Z,2.12
2023-01-18T01:12:55.953Z,2.23
2023-01-18T01:15:42.341Z,2.23
2023-01-18T01:18:29.181Z,2.24
2023-01-18T01:21:14.195Z,2.33
2023-01-18T01:23:59.426Z,2.39
2023-01-18T01:26:25.934Z,2.40
2023-01-18T01:28:53.369Z,2.37
2023-01-18T01:31:20.608Z,2.34
2023-01-18T01:33:50.571Z,2.38
2023-01-18T01:36:25.939Z,2.39
2023-01-18T01:38:53.560Z,2.41
2023-01-18T01:41:26.616Z,2.45
2023-01-18T01:43:58.367Z,2.50
2023-01-18T01:46:27.955Z,2.55
2023-01-18T01:49:01.920Z,2.59
2023-01-18T01:51:28.520Z,2.58
2023-01-18T01:54:00.257Z,2.60
2023-01-18T01:56:26.932Z,2.70
2023-01-18T01:58:58.556Z,2.73
2023-01-18T02:01:26.792Z,2.75
2023-01-18T02:03:55.308Z,2.78
2023-01-18T02:06:31.178Z,2.82
2023-01-18T02:09:02.564Z,2.90
2023-01-18T02:11:29.621Z,2.94
2023-01-18T02:14:00.516Z,2.92
2023-01-18T02:17:16.099Z,2.97
2023-01-18T02:20:10.598Z,2.95
2023-01-18T02:23:24.671Z,2.98
2023-01-18T02:26:15.738Z,2.92
2023-01-18T02:28:50.779Z,3.00
2023-01-18T02:31:19.657Z,2.94
2023-01-18T02:33:55.260Z,2.80
2023-01-18T02:36:52.173Z,2.79
2023-01-18T02:39:38.344Z,2.80
2023-01-18T02:42:36.695Z,2.75
2023-01-18T02:45:25.982Z,2.71
2023-01-18T02:47:54.577Z,2.71
2023-01-18T02:50:25.680Z,2.72
2023-01-18T02:52:53.727Z,2.61
2023-01-18T02:55:58.062Z,2.70
2023-01-18T02:58:27.823Z,2.64
2023-01-18T03:01:07.483Z,2.56
2023-01-18T03:03:35.326Z,2.67
2023-01-18T03:06:05.702Z,2.78
2023-01-18T03:08:52.510Z,2.83
2023-01-18T03:11:27.262Z,2.91
2023-01-18T03:14:08.010Z,2.94
2023-01-18T03:17:00.263Z,3.04
2023-01-18T03:20:06.004Z,3.00
2023-01-18T03:22:58.285Z,3.00
2023-01-18T03:25:38.936Z,3.06
2023-01-18T03:28:26.993Z,3.18
2023-01-18T03:31:17.497Z,3.20
2023-01-18T03:33:52.604Z,3.25
2023-01-18T03:36:27.468Z,3.36
2023-01-18T03:39:02.685Z,3.40
2023-01-18T03:41:34.000Z,3.40
2023-01-18T03:44:06.732Z,3.39
2023-01-18T03:46:34.131Z,3.44
2023-01-18T03:49:01.465Z,3.37
2023-01-18T03:51:40.795Z,3.44
2023-01-18T03:54:17.982Z,3.47
2023-01-18T03:56:53.567Z,3.47
2023-01-18T03:59:21.685Z,3.45
2023-01-18T04:01:49.022Z,3.47
2023-01-18T04:04:15.628Z,3.50
2023-01-18T04:06:42.537Z,3.58
2023-01-18T04:09:09.096Z,3.55
2023-01-18T04:11:35.655Z,3.58
2023-01-18T04:14:02.218Z,3.60
2023-01-18T04:16:28.725Z,3.64
2023-01-18T04:18:55.579Z,3.69
2023-01-18T04:21:22.231Z,3.62
2023-01-18T04:23:48.762Z,3.61
2023-01-18T04:26:16.769Z,3.55
2023-01-18T04:28:43.428Z,3.59
2023-01-18T04:31:10.010Z,3.69
2023-01-18T04:33:36.727Z,3.72
2023-01-18T04:36:03.763Z,3.68
2023-01-18T04:38:30.278Z,3.70
2023-01-18T04:40:56.755Z,3.74
2023-01-18T04:43:23.285Z,3.80
2023-01-18T04:45:54.870Z,3.82
2023-01-18T04:48:21.672Z,3.86
2023-01-18T04:50:49.727Z,3.90
2023-01-18T04:53:17.570Z,3.86
2023-01-18T04:55:45.050Z,3.83
2023-01-18T04:58:11.630Z,3.83
2023-01-18T05:00:41.047Z,3.84
2023-01-18T05:03:09.467Z,3.85
2023-01-18T05:05:36.070Z,3.81
2023-01-18T05:08:02.896Z,3.80
2023-01-18T05:10:29.833Z,3.82
2023-01-18T05:12:56.814Z,3.84
2023-01-18T05:15:23.739Z,3.88
2023-01-18T05:17:50.294Z,3.92
2023-01-18T05:20:16.884Z,3.93
2023-01-18T05:22:43.409Z,3.95
2023-01-18T05:25:09.971Z,3.95
2023-01-18T05:27:36.544Z,3.96
2023-01-18T05:30:05.891Z,3.98
2023-01-18T05:32:33.235Z,3.99
2023-01-18T05:34:59.806Z,4.01
2023-01-18T05:37:26.507Z,4.01
2023-01-18T05:39:53.146Z,3.98
2023-01-18T05:42:19.854Z,4.00
2023-01-18T05:44:46.413Z,4.04
2023-01-18T05:47:12.938Z,4.03
2023-01-18T05:49:41.848Z,4.07
2023-01-18T05:52:08.894Z,3.91
2023-01-18T05:54:35.421Z,3.89
2023-01-18T05:57:01.919Z,3.96
2023-01-18T05:59:28.397Z,3.99
2023-01-18T06:01:54.948Z,4.04
2023-01-18T06:04:22.235Z,4.04
2023-01-18T06:06:48.829Z,4.11
2023-01-18T06:09:15.342Z,4.12
2023-01-18T06:11:41.899Z,4.11
2023-01-18T06:14:08.941Z,4.12
2023-01-18T06:16:35.607Z,4.10
2023-01-18T06:19:02.302Z,4.12
2023-01-18T06:21:28.966Z,4.14
2023-01-18T06:23:55.596Z,4.11
2023-01-18T06:26:23.889Z,4.11
2023-01-18T06:28:50.517Z,4.13
2023-01-18T06:31:17.222Z,4.13
2023-01-18T06:33:43.837Z,4.15
2023-01-18T06:36:10.460Z,4.17
2023-01-18T06:38:37.141Z,4.18
2023-01-18T06:41:03.921Z,4.20
2023-01-18T06:43:30.618Z,4.19
2023-01-18T06:45:57.339Z,4.18
2023-01-18T06:48:25.408Z,4.17
2023-01-18T06:50:52.885Z,4.19
2023-01-18T06:53:23.499Z,4.19
2023-01-18T06:56:02.001Z,4.17
2023-01-18T06:58:30.085Z,4.20
2023-01-18T07:00:58.717Z,4.23
2023-01-18T07:03:26.772Z,4.26
2023-01-18T07:05:58.750Z,4.27
2023-01-18T07:08:27.118Z,4.29
2023-01-18T07:10:54.424Z,4.29
2023-01-18T07:13:22.450Z,4.26
2023-01-18T07:16:00.748Z,4.27
2023-01-18T07:18:29.847Z,4.28
2023-01-18T07:21:01.747Z,4.26
2023-01-18T07:23:29.940Z,4.22
2023-01-18T07:26:07.319Z,4.23
2023-01-18T07:28:37.167Z,4.25
2023-01-18T07:31:05.754Z,4.28
2023-01-18T07:33:32.718Z,4.26
2023-01-18T07:35:59.304Z,4.27
2023-01-18T07:38:26.229Z,4.30
2023-01-18T07:40:58.921Z,4.32
2023-01-18T07:43:25.416Z,4.29
2023-01-18T07:45:55.393Z,4.32
2023-01-18T07:48:22.483Z,4.34
2023-01-18T07:50:54.878Z,4.34
2023-01-18T07:53:22.038Z,4.36
2023-01-18T07:55:49.038Z,4.43
2023-01-18T07:58:16.505Z,4.42
2023-01-18T08:00:43.160Z,4.46
2023-01-18T08:03:14.645Z,4.46
2023-01-18T08:05:43.159Z,4.44
2023-01-18T08:08:15.660Z,4.46
2023-01-18T08:10:43.075Z,4.47
2023-01-18T08:13:10.743Z,4.47
2023-01-18T08:15:39.069Z,4.49
2023-01-18T08:18:08.061Z,4.51
2023-01-18T08:20:35.182Z,4.54
2023-01-18T08:23:02.610Z,4.50
2023-01-18T08:25:33.721Z,4.50
2023-01-18T08:28:01.839Z,4.54
2023-01-18T08:30:31.432Z,4.61
2023-01-18T08:33:00.616Z,4.66
2023-01-18T08:35:33.079Z,4.77
2023-01-18T08:38:01.294Z,4.77
2023-01-18T08:40:28.865Z,4.71
2023-01-18T08:43:00.726Z,4.69
2023-01-18T08:45:29.660Z,4.63
2023-01-18T08:48:02.442Z,4.58
2023-01-18T08:50:30.365Z,4.57
2023-01-18T08:53:00.222Z,4.64
2023-01-18T08:55:29.782Z,4.71
2023-01-18T08:57:59.897Z,4.71
2023-01-18T09:00:30.530Z,4.79
2023-01-18T09:02:58.861Z,4.77
2023-01-18T09:05:27.191Z,4.80
2023-01-18T09:07:55.164Z,4.78
2023-01-18T09:10:22.441Z,4.82
2023-01-18T09:12:49.061Z,4.81
2023-01-18T09:15:15.737Z,4.80
2023-01-18T09:17:42.279Z,4.78
2023-01-18T09:20:12.042Z,4.79
2023-01-18T09:22:38.758Z,4.83
2023-01-18T09:25:06.076Z,4.83
2023-01-18T09:27:33.017Z,4.81
2023-01-18T09:29:59.707Z,4.78
2023-01-18T09:32:27.501Z,4.77
2023-01-18T09:34:54.793Z,4.72
2023-01-18T09:37:22.027Z,4.74
2023-01-18T09:39:52.294Z,4.79
2023-01-18T09:42:25.492Z,4.82
2023-01-18T09:45:02.025Z,4.79
2023-01-18T09:47:43.298Z,4.78
2023-01-18T09:50:18.685Z,4.77
2023-01-18T09:53:22.705Z,4.86
2023-01-18T09:56:07.411Z,4.83
2023-01-18T09:58:49.122Z,4.76
2023-01-18T10:01:26.512Z,4.82
2023-01-18T10:03:55.242Z,4.83
2023-01-18T10:06:27.152Z,4.92
2023-01-18T10:09:12.178Z,5.02
2023-01-18T10:11:44.977Z,5.10
2023-01-18T10:14:22.027Z,5.08
2023-01-18T10:17:11.862Z,5.12
2023-01-18T10:19:39.326Z,5.17
2023-01-18T10:22:28.819Z,5.20
2023-01-18T10:25:05.604Z,5.15
2023-01-18T10:27:38.258Z,5.15
2023-01-18T10:30:23.162Z,5.10
2023-01-18T10:32:58.581Z,5.00
2023-01-18T10:35:35.423Z,5.02
2023-01-18T10:38:13.103Z,5.00
2023-01-18T10:40:40.589Z,5.04
2023-01-18T10:43:12.387Z,4.99
2023-01-18T10:45:38.992Z,5.07
2023-01-18T10:48:17.879Z,5.01
2023-01-18T10:50:47.559Z,5.01
2023-01-18T10:53:35.285Z,5.02
2023-01-18T10:56:06.284Z,5.03
2023-01-18T10:58:45.439Z,5.06
2023-01-18T11:01:19.933Z,5.05
2023-01-18T11:04:20.458Z,5.12
2023-01-18T11:06:49.884Z,5.22
2023-01-18T11:09:34.853Z,5.25
2023-01-18T11:12:40.055Z,5.25
2023-01-18T11:15:27.769Z,5.38
2023-01-18T11:17:58.019Z,5.33
2023-01-18T11:20:44.929Z,5.38
2023-01-18T11:23:14.379Z,5.40
2023-01-18T11:25:55.723Z,5.52
2023-01-18T11:28:27.553Z,5.54
2023-01-18T11:31:00.215Z,5.62
2023-01-18T11:33:28.271Z,5.67
2023-01-18T11:35:59.207Z,5.63
2023-01-18T11:38:33.948Z,5.80
2023-01-18T11:41:12.402Z,5.87
2023-01-18T11:43:41.523Z,5.91
2023-01-18T11:46:31.563Z,5.88
2023-01-18T11:49:07.505Z,5.82
2023-01-18T11:51:40.316Z,5.78
2023-01-18T11:54:16.321Z,5.80
2023-01-18T11:57:10.473Z,5.76
2023-01-18T11:59:41.808Z,5.78
2023-01-18T12:02:27.638Z,5.74
2023-01-18T12:05:12.448Z,5.64
2023-01-18T12:08:04.977Z,5.63
2023-01-18T12:10:54.400Z,5.63
2023-01-18T12:13:50.278Z,5.75
2023-01-18T12:16:46.011Z,5.66
2023-01-18T12:19:23.389Z,5.62
2023-01-18T12:22:14.612Z,5.55
2023-01-18T12:25:02.829Z,5.62
2023-01-18T12:27:44.151Z,5.68
2023-01-18T12:30:29.494Z,5.69
2023-01-18T12:33:04.803Z,5.54
2023-01-18T12:35:53.325Z,5.69
2023-01-18T12:38:32.533Z,5.75
2023-01-18T12:40:58.975Z,5.75
2023-01-18T12:43:25.513Z,5.77
2023-01-18T12:46:06.212Z,5.72
2023-01-18T12:48:41.382Z,5.69
2023-01-18T12:51:14.924Z,5.62
2023-01-18T12:54:05.064Z,5.71
2023-01-18T12:56:39.464Z,5.67
2023-01-18T12:59:12.524Z,5.70
2023-01-18T13:01:43.149Z,5.71
2023-01-18T13:04:19.364Z,5.68
2023-01-18T13:06:49.261Z,5.68
2023-01-18T13:09:40.254Z,5.70
2023-01-18T13:12:08.096Z,5.67
2023-01-18T13:15:13.800Z,5.74
2023-01-18T13:17:52.946Z,5.80
2023-01-18T13:20:29.244Z,5.82
2023-01-18T13:23:29.523Z,5.82
2023-01-18T13:26:18.015Z,5.89
2023-01-18T13:28:46.363Z,5.91
2023-01-18T13:31:13.719Z,5.91
2023-01-18T13:33:45.483Z,5.86
2023-01-18T13:36:15.452Z,5.80
2023-01-18T13:39:01.317Z,5.83
2023-01-18T13:41:30.209Z,5.78
2023-01-18T13:44:24.973Z,5.71
2023-01-18T13:46:51.706Z,5.65
2023-01-18T13:49:36.084Z,5.62
2023-01-18T13:52:33.565Z,5.64
2023-01-18T13:55:05.368Z,5.63
2023-01-18T13:57:33.938Z,5.65
2023-01-18T14:00:24.584Z,5.69
2023-01-18T14:02:54.543Z,5.76
2023-01-18T14:05:25.971Z,5.78
2023-01-18T14:08:02.798Z,5.72
2023-01-18T14:10:36.464Z,5.76
2023-01-18T14:13:06.580Z,5.73
2023-01-18T14:15:41.959Z,5.72
2023-01-18T14:18:29.623Z,5.70
2023-01-18T14:20:59.321Z,5.73
2023-01-18T14:23:52.345Z,5.73
2023-01-18T14:26:20.188Z,5.68
2023-01-18T14:28:53.864Z,5.78
2023-01-18T14:31:27.871Z,5.75
2023-01-18T14:33:54.587Z,5.78
2023-01-18T14:36:24.849Z,5.74
2023-01-18T14:39:12.962Z,5.72
2023-01-18T14:41:43.539Z,5.73
2023-01-18T14:44:21.379Z,5.80
2023-01-18T14:46:50.642Z,5.77
2023-01-18T14:49:25.387Z,5.72
2023-01-18T14:51:53.716Z,5.79
2023-01-18T14:54:24.326Z,5.69
2023-01-18T14:56:51.036Z,5.74
2023-01-18T14:59:30.038Z,5.75
2023-01-18T15:02:09.875Z,5.72
2023-01-18T15:04:43.050Z,5.80
2023-01-18T15:07:34.284Z,5.84
2023-01-18T15:10:00.931Z,5.83
2023-01-18T15:12:31.477Z,5.80
2023-01-18T15:15:09.001Z,5.74
2023-01-18T15:17:37.206Z,5.63
2023-01-18T15:20:08.810Z,5.63
2023-01-18T15:22:38.893Z,5.65
2023-01-18T15:25:15.003Z,5.61
2023-01-18T15:27:49.057Z,5.59
2023-01-18T15:30:16.281Z,5.55
2023-01-18T15:32:43.227Z,5.56
2023-01-18T15:35:14.612Z,5.59
2023-01-18T15:37:42.261Z,5.63
2023-01-18T15:40:18.707Z,5.61
2023-01-18T15:42:57.831Z,5.63
2023-01-18T15:45:34.096Z,5.58
2023-01-18T15:48:09.990Z,5.54
2023-01-18T15:50:43.560Z,5.55
2023-01-18T15:53:18.046Z,5.53
2023-01-18T15:55:53.436Z,5.50
2023-01-18T15:58:30.726Z,5.51
2023-01-18T16:01:03.396Z,5.51
2023-01-18T16:03:35.901Z,5.50
2023-01-18T16:06:22.821Z,5.54
2023-01-18T16:08:57.069Z,5.53
2023-01-18T16:11:52.131Z,5.49
2023-01-18T16:14:31.167Z,5.45
2023-01-18T16:17:06.946Z,5.42
2023-01-18T16:19:36.420Z,5.40
2023-01-18T16:22:04.949Z,5.49
2023-01-18T16:24:52.044Z,5.46
2023-01-18T16:27:20.896Z,5.40
2023-01-18T16:29:54.200Z,5.35
2023-01-18T16:32:29.706Z,5.44
2023-01-18T16:35:16.612Z,5.39
2023-01-18T16:37:46.966Z,5.38
2023-01-18T16:40:16.075Z,5.39
2023-01-18T16:43:06.225Z,5.42
2023-01-18T16:45:37.445Z,5.45
2023-01-18T16:48:05.854Z,5.45
2023-01-18T16:50:32.957Z,5.47
2023-01-18T16:53:04.110Z,5.43
2023-01-18T16:55:30.623Z,5.45
2023-01-18T16:57:57.375Z,5.46
2023-01-18T17:00:28.806Z,5.45
2023-01-18T17:02:57.740Z,5.43
2023-01-18T17:05:24.400Z,5.44
2023-01-18T17:07:52.742Z,5.44
2023-01-18T17:10:26.415Z,5.40
2023-01-18T17:12:52.987Z,5.25
2023-01-18T17:15:20.221Z,5.26
2023-01-18T17:17:47.679Z,5.16
2023-01-18T17:20:20.104Z,5.24
2023-01-18T17:22:47.155Z,5.22
2023-01-18T17:25:14.097Z,5.22
2023-01-18T17:27:40.697Z,5.19
2023-01-18T17:30:08.501Z,5.20
2023-01-18T17:32:35.293Z,5.15
2023-01-18T17:35:02.938Z,5.13
2023-01-18T17:37:32.435Z,5.09
2023-01-18T17:40:13.702Z,5.07
2023-01-18T17:42:44.589Z,5.07
2023-01-18T17:45:14.541Z,5.05
2023-01-18T17:47:44.059Z,4.99
2023-01-18T17:50:12.820Z,5.02
2023-01-18T17:52:52.375Z,5.01
2023-01-18T17:55:24.316Z,4.97
2023-01-18T17:57:56.642Z,5.01
2023-01-18T18:00:23.230Z,5.02
2023-01-18T18:02:52.463Z,5.03
2023-01-18T18:05:19.971Z,5.03
2023-01-18T18:07:51.659Z,5.08
2023-01-18T18:10:18.409Z,5.07
2023-01-18T18:12:45.142Z,5.07
2023-01-18T18:15:11.818Z,5.05
2023-01-18T18:17:38.359Z,5.00
2023-01-18T18:20:07.804Z,5.04
2023-01-18T18:22:34.365Z,5.04
2023-01-18T18:25:00.990Z,5.04
2023-01-18T18:27:37.486Z,5.07
2023-01-18T18:30:20.098Z,5.09
2023-01-18T18:32:49.674Z,5.13
2023-01-18T18:35:25.526Z,5.10
2023-01-18T18:37:54.309Z,5.10
2023-01-18T18:40:21.291Z,5.08
2023-01-18T18:43:00.807Z,5.09
2023-01-18T18:45:30.877Z,5.07
2023-01-18T18:48:01.090Z,5.05
2023-01-18T18:50:28.168Z,5.07
2023-01-18T18:52:54.843Z,5.08
2023-01-18T18:55:21.726Z,5.07
2023-01-18T18:57:48.305Z,5.06
2023-01-18T19:00:15.829Z,5.09
2023-01-18T19:02:42.757Z,5.04
2023-01-18T19:05:13.864Z,5.05
2023-01-18T19:07:43.536Z,5.04
2023-01-18T19:10:15.770Z,5.03
2023-01-18T19:12:45.085Z,5.01
2023-01-18T19:15:11.663Z,4.99
2023-01-18T19:17:38.412Z,4.96
2023-01-18T19:20:13.968Z,4.96
2023-01-18T19:22:40.533Z,5.01
2023-01-18T19:25:07.937Z,4.98
2023-01-18T19:27:34.632Z,4.99
2023-01-18T19:30:01.209Z,4.97
2023-01-18T19:32:28.207Z,4.95
2023-01-18T19:34:54.745Z,4.89
2023-01-18T19:37:21.291Z,4.86
2023-01-18T19:39:47.888Z,4.86
2023-01-18T19:42:14.552Z,4.89
2023-01-18T19:44:41.090Z,4.94
2023-01-18T19:47:07.879Z,4.89
2023-01-18T19:49:34.433Z,4.88
2023-01-18T19:52:00.963Z,4.94
2023-01-18T19:54:27.692Z,4.86
2023-01-18T19:56:54.285Z,4.76
2023-01-18T19:59:20.904Z,4.77
2023-01-18T20:01:47.653Z,4.74
2023-01-18T20:04:14.496Z,4.71
2023-01-18T20:06:43.592Z,4.47
2023-01-18T20:09:19.470Z,4.53
2023-01-18T20:11:51.392Z,4.49
2023-01-18T20:14:19.378Z,4.32
2023-01-18T20:16:46.336Z,4.41
2023-01-18T20:19:15.948Z,4.42
2023-01-18T20:21:42.475Z,4.44
2023-01-18T20:24:09.808Z,4.50
2023-01-18T20:26:39.618Z,4.46
2023-01-18T20:29:07.570Z,4.49
2023-01-18T20:31:39.907Z,4.49
2023-01-18T20:34:09.818Z,4.61
2023-01-18T20:36:47.118Z,4.59
2023-01-18T20:39:14.064Z,4.53
2023-01-18T20:41:40.900Z,4.45
2023-01-18T20:44:09.320Z,4.42
2023-01-18T20:46:36.087Z,4.44
2023-01-18T20:49:03.668Z,4.40
2023-01-18T20:51:33.911Z,4.49
2023-01-18T20:54:03.415Z,4.47
2023-01-18T20:56:32.969Z,4.40
2023-01-18T20:58:59.515Z,4.44
2023-01-18T21:01:32.432Z,4.48
2023-01-18T21:04:00.909Z,4.46
2023-01-18T21:06:28.231Z,4.45
2023-01-18T21:08:56.201Z,4.45
2023-01-18T21:11:25.294Z,4.43
2023-01-18T21:13:54.922Z,4.41
2023-01-18T21:16:22.107Z,4.36
2023-01-18T21:18:56.036Z,4.30
2023-01-18T21:21:23.969Z,4.26
2023-01-18T21:23:52.900Z,4.23
2023-01-18T21:26:19.499Z,4.22
2023-01-18T21:28:46.245Z,4.23
2023-01-18T21:31:12.874Z,4.24
2023-01-18T21:33:39.368Z,4.25
2023-01-18T21:36:08.602Z,4.30
2023-01-18T21:38:36.166Z,4.27
2023-01-18T21:41:21.965Z,4.28
2023-01-18T21:44:08.732Z,4.23
2023-01-18T21:46:36.262Z,4.20
2023-01-18T21:49:06.956Z,4.19
2023-01-18T21:51:52.666Z,4.23
2023-01-18T21:54:22.076Z,4.20
2023-01-18T21:56:48.900Z,4.11
2023-01-18T21:59:15.430Z,4.13
2023-01-18T22:01:44.364Z,4.17
2023-01-18T22:04:31.996Z,4.16
2023-01-18T22:06:59.605Z,4.22
2023-01-18T22:09:27.530Z,4.23
2023-01-18T22:11:56.386Z,4.23
2023-01-18T22:14:23.787Z,4.25
2023-01-18T22:16:50.410Z,4.27
2023-01-18T22:19:19.329Z,4.28
2023-01-18T22:21:46.166Z,4.30
2023-01-18T22:24:13.516Z,4.26
2023-01-18T22:26:40.921Z,4.23
2023-01-18T22:29:08.501Z,4.21
2023-01-18T22:31:35.716Z,4.23
2023-01-18T22:34:04.620Z,4.20
2023-01-18T22:36:32.568Z,4.18
2023-01-18T22:39:05.619Z,4.15
2023-01-18T22:41:32.148Z,4.11
2023-01-18T22:43:58.690Z,4.13
2023-01-18T22:46:25.618Z,4.18
2023-01-18T22:48:52.558Z,4.17
2023-01-18T22:51:22.339Z,4.17
2023-01-18T22:53:49.574Z,4.13
2023-01-18T22:56:21.913Z,4.13
2023-01-18T22:58:49.302Z,4.15
2023-01-18T23:01:22.689Z,4.07
2023-01-18T23:03:52.778Z,4.08
2023-01-18T23:06:20.390Z,4.14
2023-01-18T23:08:47.982Z,4.13
2023-01-18T23:11:21.152Z,4.16
2023-01-18T23:14:09.442Z,4.17
2023-01-18T23:16:55.155Z,4.20
2023-01-18T23:19:24.051Z,4.20
2023-01-18T23:21:51.139Z,4.19
2023-01-18T23:24:18.305Z,4.19
2023-01-18T23:26:45.523Z,4.17
2023-01-18T23:29:12.513Z,4.08
2023-01-18T23:31:39.075Z,4.16
2023-01-18T23:34:06.714Z,4.16
2023-01-18T23:36:33.213Z,4.20
2023-01-18T23:39:18.264Z,4.18
2023-01-18T23:42:03.421Z,4.07
2023-01-18T23:44:48.591Z,3.99
2023-01-18T23:47:33.574Z,4.00
2023-01-18T23:50:18.651Z,3.99
2023-01-18T23:53:03.605Z,3.91
2023-01-18T23:55:30.209Z,3.81
2023-01-18T23:57:56.711Z,3.86
